createdAt,value
2023-01-18T00:00:37.659Z,94.26
2023-01-18T00:03:08.721Z,93.97
2023-01-18T00:05:39.891Z,93.87
2023-01-18T00:08:09.491Z,93.68
2023-01-18T00:10:37.361Z,93.62
2023-01-18T00:13:05.740Z,93.66
2023-01-18T00:15:33.945Z,93.56
2023-01-18T00:18:02.007Z,94.07
2023-01-18T00:20:32.007Z,94.23
2023-01-18T00:23:01.034Z,94.21
2023-01-18T00:25:31.312Z,94.26
2023-01-18T00:27:59.535Z,93.78
2023-01-18T00:30:29.588Z,94.04
2023-01-18T00:32:59.917Z,94.13
2023-01-18T00:35:28.933Z,94.22
2023-01-18T00:37:57.117Z,93.84
2023-01-18T00:40:28.873Z,93.33
2023-01-18T00:43:15.996Z,93.45
2023-01-18T00:45:44.222Z,94.10
2023-01-18T00:48:12.021Z,94.54
2023-01-18T00:50:39.860Z,94.34
2023-01-18T00:53:07.675Z,94.64
2023-01-18T00:55:35.571Z,94.54
2023-01-18T00:58:04.732Z,94.35
2023-01-18T01:00:33.532Z,94.21
2023-01-18T01:03:01.794Z,94.56
2023-01-18T01:05:47.269Z,94.93
2023-01-18T01:08:17.871Z,94.52
2023-01-18T01:10:47.209Z,94.36
2023-01-18T01:13:36.207Z,94.49
2023-01-18T01:16:24.342Z,94.82
2023-01-18T01:19:10.193Z,94.08
2023-01-18T01:21:55.429Z,94.10
2023-01-18T01:24:40.760Z,94.23
2023-01-18T01:27:08.610Z,94.83
2023-01-18T01:29:38.281Z,94.25
2023-01-18T01:32:06.670Z,94.61
2023-01-18T01:34:34.763Z,94.77
2023-01-18T01:37:02.711Z,95.08
2023-01-18T01:39:30.741Z,94.45
2023-01-18T01:41:58.818Z,94.92
2023-01-18T01:44:50.220Z,94.49
2023-01-18T01:47:33.870Z,94.49
2023-01-18T01:50:08.640Z,94.74
2023-01-18T01:52:40.037Z,94.51
2023-01-18T01:55:12.239Z,94.36
2023-01-18T01:57:44.379Z,94.84
2023-01-18T02:00:19.567Z,94.89
2023-01-18T02:02:51.930Z,95.10
2023-01-18T02:05:20.568Z,94.73
2023-01-18T02:07:49.031Z,94.62
2023-01-18T02:10:17.130Z,94.63
2023-01-18T02:12:48.112Z,94.06
2023-01-18T02:15:20.006Z,93.88
2023-01-18T02:18:06.440Z,93.57
2023-01-18T02:21:02.466Z,93.75
2023-01-18T02:23:38.999Z,93.98
2023-01-18T02:26:42.264Z,94.17
2023-01-18T02:29:17.533Z,93.83
2023-01-18T02:31:57.999Z,93.67
2023-01-18T02:34:40.133Z,94.55
2023-01-18T02:37:14.854Z,94.16
2023-01-18T02:39:53.698Z,94.14
2023-01-18T02:42:43.067Z,94.52
2023-01-18T02:45:35.912Z,94.36
2023-01-18T02:48:05.453Z,94.29
2023-01-18T02:50:33.920Z,94.49
2023-01-18T02:53:01.772Z,94.90
2023-01-18T02:55:41.207Z,95.00
2023-01-18T02:58:15.575Z,94.75
2023-01-18T03:00:50.274Z,94.93
2023-01-18T03:03:21.978Z,95.07
2023-01-18T03:05:55.576Z,95.11
2023-01-18T03:08:32.270Z,95.44
2023-01-18T03:11:03.727Z,95.44
2023-01-18T03:13:47.850Z,94.35
2023-01-18T03:16:22.692Z,94.21
2023-01-18T03:19:03.443Z,94.34
2023-01-18T03:21:38.945Z,94.31
2023-01-18T03:24:09.856Z,94.19
2023-01-18T03:26:42.447Z,94.47
2023-01-18T03:29:30.518Z,94.61
2023-01-18T03:32:24.853Z,94.92
2023-01-18T03:34:55.585Z,95.04
2023-01-18T03:37:29.226Z,94.11
2023-01-18T03:40:02.682Z,94.71
2023-01-18T03:42:36.203Z,94.60
2023-01-18T03:45:09.783Z,94.57
2023-01-18T03:47:40.485Z,94.65
2023-01-18T03:50:10.708Z,94.61
2023-01-18T03:52:43.303Z,95.30
2023-01-18T03:55:17.166Z,95.16
2023-01-18T03:57:50.392Z,94.92
2023-01-18T04:00:19.407Z,95.21
2023-01-18T04:02:50.578Z,95.10
2023-01-18T04:05:19.401Z,95.32
2023-01-18T04:07:47.334Z,95.10
2023-01-18T04:10:15.473Z,95.14
2023-01-18T04:12:44.062Z,94.83
2023-01-18T04:15:14.962Z,94.39
2023-01-18T04:17:44.403Z,94.43
2023-01-18T04:20:13.805Z,93.78
2023-01-18T04:22:41.985Z,94.52
2023-01-18T04:25:11.943Z,94.89
2023-01-18T04:27:39.801Z,94.70
2023-01-18T04:30:10.155Z,94.86
2023-01-18T04:32:37.949Z,94.71
2023-01-18T04:35:07.173Z,94.44
2023-01-18T04:37:38.222Z,95.14
2023-01-18T04:40:07.012Z,95.04
2023-01-18T04:42:35.133Z,95.34
2023-01-18T04:45:02.959Z,95.56
2023-01-18T04:47:30.835Z,95.27
2023-01-18T04:49:58.632Z,95.08
2023-01-18T04:52:26.945Z,94.71
2023-01-18T04:54:56.238Z,95.60
2023-01-18T04:57:24.087Z,95.46
2023-01-18T04:59:51.882Z,95.62
2023-01-18T05:02:19.801Z,95.42
2023-01-18T05:04:47.974Z,95.73
2023-01-18T05:07:16.419Z,95.75
2023-01-18T05:09:44.255Z,95.60
2023-01-18T05:12:13.621Z,95.63
2023-01-18T05:14:42.146Z,94.96
2023-01-18T05:17:10.832Z,95.08
2023-01-18T05:19:40.507Z,94.36
2023-01-18T05:22:08.496Z,94.68
2023-01-18T05:24:37.169Z,94.79
2023-01-18T05:27:05.216Z,95.12
2023-01-18T05:29:34.510Z,95.54
2023-01-18T05:32:02.396Z,95.35
2023-01-18T05:34:30.562Z,95.14
2023-01-18T05:36:58.819Z,95.24
2023-01-18T05:39:27.022Z,95.32
2023-01-18T05:41:54.808Z,95.12
2023-01-18T05:44:22.645Z,94.48
2023-01-18T05:46:54.742Z,94.23
2023-01-18T05:49:23.367Z,94.07
2023-01-18T05:51:52.009Z,94.31
2023-01-18T05:54:21.137Z,94.15
2023-01-18T05:56:49.455Z,94.99
2023-01-18T05:59:17.515Z,95.01
2023-01-18T06:01:46.076Z,95.45
2023-01-18T06:04:15.335Z,95.45
2023-01-18T06:06:43.223Z,95.14
2023-01-18T06:09:11.006Z,95.65
2023-01-18T06:11:39.038Z,94.73
2023-01-18T06:14:06.945Z,94.73
2023-01-18T06:16:35.667Z,95.50
2023-01-18T06:19:03.592Z,95.50
2023-01-18T06:21:32.800Z,95.72
2023-01-18T06:24:01.143Z,95.33
2023-01-18T06:26:31.210Z,95.59
2023-01-18T06:28:59.253Z,95.53
2023-01-18T06:31:27.117Z,95.79
2023-01-18T06:33:54.988Z,95.72
2023-01-18T06:36:22.831Z,95.82
2023-01-18T06:38:52.113Z,96.14
2023-01-18T06:41:21.305Z,95.84
2023-01-18T06:43:51.302Z,95.51
2023-01-18T06:46:19.656Z,94.87
2023-01-18T06:48:47.821Z,94.39
2023-01-18T06:51:15.670Z,94.06
2023-01-18T06:53:45.684Z,93.87
2023-01-18T06:56:15.672Z,94.47
2023-01-18T06:58:44.776Z,94.27
2023-01-18T07:01:14.554Z,93.90
2023-01-18T07:03:42.496Z,94.22
2023-01-18T07:06:10.389Z,93.96
2023-01-18T07:08:40.069Z,93.50
2023-01-18T07:11:09.422Z,93.73
2023-01-18T07:13:41.051Z,93.93
2023-01-18T07:16:17.996Z,93.96
2023-01-18T07:18:48.405Z,93.33
2023-01-18T07:21:18.025Z,93.05
2023-01-18T07:23:46.663Z,93.69
2023-01-18T07:26:16.616Z,92.92
2023-01-18T07:28:49.510Z,92.64
2023-01-18T07:31:20.200Z,93.49
2023-01-18T07:33:49.272Z,93.06
2023-01-18T07:36:18.307Z,92.81
2023-01-18T07:38:47.404Z,92.53
2023-01-18T07:41:17.071Z,92.82
2023-01-18T07:43:47.451Z,92.64
2023-01-18T07:46:18.524Z,92.93
2023-01-18T07:48:46.388Z,92.86
2023-01-18T07:51:14.408Z,92.68
2023-01-18T07:53:42.468Z,92.29
2023-01-18T07:56:14.737Z,92.45
2023-01-18T07:58:43.000Z,90.74
2023-01-18T08:01:15.146Z,91.49
2023-01-18T08:03:44.383Z,91.34
2023-01-18T08:06:13.952Z,91.47
2023-01-18T08:08:42.067Z,92.11
2023-01-18T08:11:10.564Z,91.92
2023-01-18T08:13:38.837Z,92.02
2023-01-18T08:16:11.117Z,91.72
2023-01-18T08:18:41.905Z,91.76
2023-01-18T08:21:12.323Z,91.87
2023-01-18T08:23:40.618Z,91.25
2023-01-18T08:26:09.761Z,91.05
2023-01-18T08:28:38.032Z,91.59
2023-01-18T08:31:09.625Z,91.45
2023-01-18T08:33:46.099Z,90.94
2023-01-18T08:36:16.612Z,90.92
2023-01-18T08:38:49.744Z,91.17
2023-01-18T08:41:18.188Z,91.54
2023-01-18T08:43:51.189Z,90.89
2023-01-18T08:46:20.372Z,91.16
2023-01-18T08:48:52.004Z,91.06
2023-01-18T08:51:22.908Z,91.20
2023-01-18T08:53:54.388Z,90.67
2023-01-18T08:56:22.338Z,90.99
2023-01-18T08:58:52.485Z,90.00
2023-01-18T09:01:23.244Z,91.08
2023-01-18T09:03:55.201Z,90.21
2023-01-18T09:06:24.509Z,90.99
2023-01-18T09:08:53.059Z,90.30
2023-01-18T09:11:20.863Z,90.16
2023-01-18T09:14:00.311Z,90.45
2023-01-18T09:16:29.541Z,89.70
2023-01-18T09:18:59.081Z,89.39
2023-01-18T09:21:29.063Z,89.57
2023-01-18T09:23:57.246Z,89.50
2023-01-18T09:26:25.488Z,89.57
2023-01-18T09:28:54.471Z,89.26
2023-01-18T09:31:24.190Z,89.47
2023-01-18T09:33:53.869Z,89.79
2023-01-18T09:36:26.842Z,89.56
2023-01-18T09:38:55.337Z,89.44
2023-01-18T09:41:31.422Z,89.76
2023-01-18T09:44:02.500Z,88.54
2023-01-18T09:46:35.383Z,88.61
2023-01-18T09:49:06.103Z,88.76
2023-01-18T09:51:44.298Z,88.53
2023-01-18T09:54:34.417Z,88.34
2023-01-18T09:57:09.854Z,88.97
2023-01-18T09:59:43.480Z,89.16
2023-01-18T10:02:20.491Z,88.70
2023-01-18T10:04:53.993Z,89.36
2023-01-18T10:07:27.283Z,89.73
2023-01-18T10:09:57.690Z,90.23
2023-01-18T10:12:34.824Z,90.25
2023-01-18T10:15:07.790Z,89.98
2023-01-18T10:17:39.984Z,90.34
2023-01-18T10:20:16.145Z,90.04
2023-01-18T10:22:52.087Z,89.54
2023-01-18T10:25:31.781Z,89.41
2023-01-18T10:28:33.123Z,88.90
2023-01-18T10:31:24.936Z,88.55
2023-01-18T10:33:57.018Z,87.70
2023-01-18T10:36:32.391Z,88.41
2023-01-18T10:39:05.915Z,87.50
2023-01-18T10:41:38.562Z,88.07
2023-01-18T10:44:06.686Z,87.63
2023-01-18T10:46:34.623Z,87.91
2023-01-18T10:49:02.624Z,88.44
2023-01-18T10:51:35.106Z,88.45
2023-01-18T10:54:23.179Z,88.24
2023-01-18T10:57:02.200Z,88.56
2023-01-18T10:59:37.462Z,89.46
2023-01-18T11:02:06.123Z,89.25
2023-01-18T11:04:35.038Z,88.49
2023-01-18T11:07:04.861Z,87.86
2023-01-18T11:09:48.411Z,88.18
2023-01-18T11:12:37.977Z,87.44
2023-01-18T11:15:24.766Z,87.08
2023-01-18T11:18:20.455Z,86.90
2023-01-18T11:20:50.505Z,87.65
2023-01-18T11:23:26.298Z,86.94
2023-01-18T11:26:00.666Z,86.32
2023-01-18T11:28:36.098Z,86.18
2023-01-18T11:31:10.358Z,86.60
2023-01-18T11:33:43.018Z,86.09
2023-01-18T11:36:11.013Z,86.08
2023-01-18T11:38:39.673Z,85.73
2023-01-18T11:41:20.702Z,85.55
2023-01-18T11:44:03.789Z,85.13
2023-01-18T11:46:39.039Z,85.39
2023-01-18T11:49:22.880Z,84.35
2023-01-18T11:51:56.696Z,85.08
2023-01-18T11:54:28.975Z,84.73
2023-01-18T11:57:02.299Z,84.60
2023-01-18T11:59:33.985Z,84.11
2023-01-18T12:02:35.686Z,84.36
2023-01-18T12:05:22.487Z,84.53
2023-01-18T12:08:02.563Z,83.89
2023-01-18T12:10:39.115Z,83.63
2023-01-18T12:13:25.252Z,83.14
2023-01-18T12:16:03.591Z,82.74
2023-01-18T12:18:49.561Z,83.02
2023-01-18T12:21:23.371Z,83.61
2023-01-18T12:24:17.045Z,83.59
2023-01-18T12:26:51.420Z,82.49
2023-01-18T12:29:55.578Z,82.48
2023-01-18T12:32:41.942Z,82.96
2023-01-18T12:35:26.808Z,83.02
2023-01-18T12:38:06.362Z,82.34
2023-01-18T12:40:51.678Z,83.05
2023-01-18T12:43:35.557Z,82.29
2023-01-18T12:46:10.411Z,82.06
2023-01-18T12:48:48.116Z,82.88
2023-01-18T12:51:18.386Z,81.00
2023-01-18T12:53:50.325Z,80.48
2023-01-18T12:56:26.081Z,81.35
2023-01-18T12:59:00.692Z,81.01
2023-01-18T13:01:36.396Z,81.42
2023-01-18T13:04:14.918Z,81.73
2023-01-18T13:06:45.868Z,81.49
2023-01-18T13:09:19.794Z,81.66
2023-01-18T13:11:49.210Z,81.47
2023-01-18T13:14:22.411Z,80.53
2023-01-18T13:17:01.217Z,81.01
2023-01-18T13:19:37.290Z,80.22
2023-01-18T13:22:14.022Z,79.12
2023-01-18T13:24:56.780Z,79.63
2023-01-18T13:27:24.976Z,80.40
2023-01-18T13:29:54.277Z,79.83
2023-01-18T13:32:31.810Z,80.36
2023-01-18T13:35:18.943Z,80.42
2023-01-18T13:37:49.403Z,79.85
2023-01-18T13:40:31.865Z,80.30
2023-01-18T13:42:59.750Z,80.79
2023-01-18T13:45:29.819Z,81.22
2023-01-18T13:48:03.413Z,80.80
2023-01-18T13:50:40.919Z,80.93
2023-01-18T13:53:23.205Z,80.69
2023-01-18T13:56:22.250Z,80.73
2023-01-18T13:59:05.134Z,80.94
2023-01-18T14:01:37.831Z,80.86
2023-01-18T14:04:16.039Z,80.75
2023-01-18T14:06:46.534Z,81.19
2023-01-18T14:09:18.383Z,81.29
2023-01-18T14:11:54.702Z,81.11
2023-01-18T14:14:29.234Z,80.78
2023-01-18T14:17:00.570Z,80.96
2023-01-18T14:19:32.569Z,81.32
2023-01-18T14:22:23.106Z,80.90
2023-01-18T14:25:11.323Z,80.83
2023-01-18T14:27:42.674Z,80.55
2023-01-18T14:30:19.715Z,80.40
2023-01-18T14:32:59.175Z,81.01
2023-01-18T14:35:28.680Z,80.77
2023-01-18T14:38:17.353Z,81.05
2023-01-18T14:40:48.981Z,81.11
2023-01-18T14:43:24.768Z,81.75
2023-01-18T14:45:57.004Z,81.66
2023-01-18T14:51:10.266Z,80.88
2023-01-18T14:53:46.444Z,80.97
2023-01-18T14:56:19.997Z,80.98
2023-01-18T14:58:53.639Z,80.54
2023-01-18T15:01:28.306Z,80.41
2023-01-18T15:03:57.013Z,81.17
2023-01-18T15:06:35.741Z,81.77
2023-01-18T15:09:07.101Z,80.36
2023-01-18T15:11:37.414Z,80.45
2023-01-18T15:14:10.561Z,81.05
2023-01-18T15:16:38.484Z,80.67
2023-01-18T15:19:35.586Z,81.61
2023-01-18T15:22:07.615Z,80.94
2023-01-18T15:24:40.414Z,81.22
2023-01-18T15:27:13.396Z,80.80
2023-01-18T15:29:46.846Z,81.61
2023-01-18T15:32:17.690Z,81.17
2023-01-18T15:34:47.676Z,81.18
2023-01-18T15:37:22.935Z,81.13
2023-01-18T15:39:56.599Z,81.04
2023-01-18T15:42:29.290Z,81.36
2023-01-18T15:44:59.494Z,81.24
2023-01-18T15:47:29.777Z,81.51
2023-01-18T15:50:00.028Z,81.11
2023-01-18T15:52:45.503Z,82.03
2023-01-18T15:55:24.070Z,81.22
2023-01-18T15:58:00.076Z,81.92
2023-01-18T16:00:31.209Z,81.31
2023-01-18T16:02:59.498Z,83.41
2023-01-18T16:05:28.615Z,82.28
2023-01-18T16:08:20.492Z,83.15
2023-01-18T16:10:51.481Z,82.20
2023-01-18T16:13:33.457Z,81.98
2023-01-18T16:16:21.345Z,82.41
2023-01-18T16:18:52.824Z,82.10
2023-01-18T16:21:30.678Z,83.55
2023-01-18T16:24:00.084Z,82.41
2023-01-18T16:26:31.422Z,82.06
2023-01-18T16:29:07.870Z,84.28
2023-01-18T16:31:36.571Z,82.85
2023-01-18T16:34:23.926Z,82.58
2023-01-18T16:36:53.151Z,82.58
2023-01-18T16:39:24.105Z,83.31
2023-01-18T16:41:57.422Z,82.31
2023-01-18T16:44:25.566Z,82.72
2023-01-18T16:46:53.916Z,83.27
2023-01-18T16:49:21.792Z,80.64
2023-01-18T16:51:50.617Z,79.40
2023-01-18T16:54:18.660Z,80.83
2023-01-18T16:56:47.869Z,80.56
2023-01-18T16:59:18.196Z,80.77
2023-01-18T17:01:46.892Z,80.88
2023-01-18T17:04:15.205Z,79.92
2023-01-18T17:06:44.076Z,80.21
2023-01-18T17:09:20.612Z,79.88
2023-01-18T17:11:50.223Z,79.87
2023-01-18T17:14:18.496Z,80.18
2023-01-18T17:16:47.541Z,79.50
2023-01-18T17:19:17.099Z,79.48
2023-01-18T17:21:46.924Z,80.10
2023-01-18T17:24:15.494Z,80.32
2023-01-18T17:26:43.867Z,80.31
2023-01-18T17:29:17.877Z,79.56
2023-01-18T17:31:52.184Z,80.13
2023-01-18T17:34:27.408Z,79.46
2023-01-18T17:36:57.162Z,79.49
2023-01-18T17:39:32.076Z,79.54
2023-01-18T17:42:16.347Z,80.46
2023-01-18T17:44:45.919Z,80.96
2023-01-18T17:47:13.810Z,80.23
2023-01-18T17:49:42.135Z,80.52
2023-01-18T17:52:10.065Z,80.48
2023-01-18T17:54:37.870Z,80.28
2023-01-18T17:57:05.733Z,81.02
2023-01-18T17:59:33.597Z,79.99
2023-01-18T18:02:03.014Z,81.15
2023-01-18T18:04:31.592Z,81.38
2023-01-18T18:06:59.680Z,80.64
2023-01-18T18:09:27.631Z,81.43
2023-01-18T18:11:55.542Z,80.83
2023-01-18T18:14:23.425Z,81.06
2023-01-18T18:16:51.831Z,81.48
2023-01-18T18:19:21.098Z,81.72
2023-01-18T18:21:48.932Z,83.53
2023-01-18T18:24:16.846Z,83.60
2023-01-18T18:26:44.662Z,83.27
2023-01-18T18:29:12.439Z,82.34
2023-01-18T18:31:40.345Z,83.44
2023-01-18T18:34:08.700Z,82.72
2023-01-18T18:36:38.233Z,82.33
2023-01-18T18:39:06.721Z,82.39
2023-01-18T18:41:34.491Z,81.96
2023-01-18T18:44:02.788Z,82.59
2023-01-18T18:46:30.901Z,82.10
2023-01-18T18:48:58.772Z,82.73
2023-01-18T18:51:26.835Z,82.35
2023-01-18T18:53:56.483Z,82.76
2023-01-18T18:56:24.409Z,83.61
2023-01-18T18:58:52.242Z,83.01
2023-01-18T19:01:22.239Z,82.87
2023-01-18T19:03:50.951Z,82.39
2023-01-18T19:06:20.074Z,83.22
2023-01-18T19:08:48.326Z,83.80
2023-01-18T19:11:17.728Z,83.23
2023-01-18T19:13:48.515Z,82.79
2023-01-18T19:16:16.818Z,82.47
2023-01-18T19:18:44.878Z,83.13
2023-01-18T19:21:12.711Z,82.61
2023-01-18T19:23:40.695Z,83.55
2023-01-18T19:26:08.686Z,83.24
2023-01-18T19:28:38.374Z,83.29
2023-01-18T19:31:07.781Z,83.33
2023-01-18T19:33:36.772Z,83.98
2023-01-18T19:36:09.994Z,83.52
2023-01-18T19:38:45.815Z,84.11
2023-01-18T19:41:15.018Z,83.36
2023-01-18T19:43:44.832Z,82.80
2023-01-18T19:46:15.232Z,83.47
2023-01-18T19:48:43.645Z,83.42
2023-01-18T19:51:21.827Z,83.31
2023-01-18T19:53:51.204Z,83.30
2023-01-18T19:56:19.274Z,82.91
2023-01-18T19:58:49.903Z,83.05
2023-01-18T20:01:34.655Z,83.85
2023-01-18T20:04:04.782Z,83.30
2023-01-18T20:06:32.849Z,83.50
2023-01-18T20:09:00.737Z,82.63
2023-01-18T20:11:28.903Z,82.76
2023-01-18T20:13:58.054Z,83.78
2023-01-18T20:16:26.120Z,83.40
2023-01-18T20:18:54.409Z,83.60
2023-01-18T20:21:22.336Z,83.75
2023-01-18T20:23:50.420Z,84.09
2023-01-18T20:26:31.103Z,84.07
2023-01-18T20:29:06.350Z,84.28
2023-01-18T20:31:34.618Z,83.72
2023-01-18T20:34:03.018Z,84.28
2023-01-18T20:36:30.898Z,84.62
2023-01-18T20:38:58.747Z,83.74
2023-01-18T20:41:26.553Z,84.34
2023-01-18T20:43:54.437Z,84.43
2023-01-18T20:46:23.616Z,84.11
2023-01-18T20:48:51.551Z,83.72
2023-01-18T20:51:19.447Z,83.46
2023-01-18T20:53:47.347Z,84.32
2023-01-18T20:56:28.339Z,83.47
2023-01-18T20:58:57.901Z,83.43
2023-01-18T21:01:32.114Z,83.09
2023-01-18T21:04:01.365Z,83.22
2023-01-18T21:06:29.723Z,83.14
2023-01-18T21:08:59.399Z,83.27
2023-01-18T21:11:27.627Z,82.82
2023-01-18T21:13:56.433Z,83.52
2023-01-18T21:16:24.595Z,83.08
2023-01-18T21:18:56.061Z,82.89
2023-01-18T21:21:24.251Z,83.27
2023-01-18T21:23:52.205Z,83.05
2023-01-18T21:26:20.192Z,83.28
2023-01-18T21:28:48.207Z,83.48
2023-01-18T21:31:16.129Z,83.57
2023-01-18T21:33:44.136Z,83.06
2023-01-18T21:36:15.959Z,83.07
2023-01-18T21:38:44.014Z,83.46
2023-01-18T21:41:29.879Z,83.17
2023-01-18T21:44:15.181Z,83.49
2023-01-18T21:46:45.661Z,83.76
2023-01-18T21:49:51.967Z,83.66
2023-01-18T21:52:40.384Z,83.23
2023-01-18T21:55:08.835Z,83.10
2023-01-18T21:57:37.500Z,83.58
2023-01-18T22:00:07.294Z,83.84
2023-01-18T22:02:35.925Z,83.97
2023-01-18T22:05:04.645Z,83.85
2023-01-18T22:07:35.268Z,84.39
2023-01-18T22:10:06.471Z,84.19
2023-01-18T22:12:38.781Z,84.62
2023-01-18T22:15:07.897Z,83.82
2023-01-18T22:17:35.851Z,84.51
2023-01-18T22:20:04.537Z,83.90
2023-01-18T22:22:33.671Z,84.21
2023-01-18T22:25:02.372Z,83.69
2023-01-18T22:27:30.807Z,84.07
2023-01-18T22:29:58.755Z,83.98
2023-01-18T22:32:26.844Z,83.58
2023-01-18T22:34:54.726Z,84.15
2023-01-18T22:37:23.443Z,84.07
2023-01-18T22:39:52.647Z,83.59
2023-01-18T22:42:20.521Z,84.08
2023-01-18T22:44:48.546Z,84.25
2023-01-18T22:47:16.388Z,83.37
2023-01-18T22:49:44.207Z,83.79
2023-01-18T22:52:12.021Z,84.09
2023-01-18T22:54:40.065Z,84.85
2023-01-18T22:57:09.275Z,84.84
2023-01-18T22:59:37.163Z,84.39
2023-01-18T23:02:05.017Z,84.66
2023-01-18T23:04:34.320Z,84.80
2023-01-18T23:07:02.239Z,84.45
2023-01-18T23:09:30.323Z,84.40
2023-01-18T23:11:58.174Z,84.53
2023-01-18T23:14:44.740Z,84.40
2023-01-18T23:17:30.702Z,84.17
2023-01-18T23:19:58.527Z,85.15
2023-01-18T23:22:26.463Z,84.51
2023-01-18T23:24:54.339Z,84.15
2023-01-18T23:27:22.199Z,84.99
2023-01-18T23:29:56.581Z,83.79
2023-01-18T23:32:27.236Z,84.20
2023-01-18T23:34:55.740Z,84.52
2023-01-18T23:37:24.128Z,84.69
2023-01-18T23:40:09.860Z,84.44
2023-01-18T23:42:55.578Z,83.95
2023-01-18T23:45:42.105Z,84.85
2023-01-18T23:48:30.539Z,85.04
2023-01-18T23:51:15.991Z,84.67
2023-01-18T23:54:01.189Z,86.04
2023-01-18T23:56:28.997Z,85.19
2023-01-18T23:58:57.533Z,85.72
